sensor_id;sensor_type;location;lat;lon;timestamp;pressure;altitude;pressure_sealevel;temperature;humidity
5703;BME280;2876;51.738;10.050;2023-01-31T00:04:47;99602.03;;;3.69;93.22
5703;BME280;2876;51.738;10.050;2023-01-31T00:10:49;99598.84;;;3.65;92.72
5703;BME280;2876;51.738;10.050;2023-01-31T00:16:51;99597.41;;;3.71;92.95
5703;BME280;2876;51.738;10.050;2023-01-31T00:22:54;99608.63;;;3.65;93.19
5703;BME280;2876;51.738;10.050;2023-01-31T00:28:58;99596.47;;;3.62;93.94
5703;BME280;2876;51.738;10.050;2023-01-31T00:35:00;99620.16;;;3.73;93.43
5703;BME280;2876;51.738;10.050;2023-01-31T00:41:03;99623.19;;;3.78;94.27
5703;BME280;2876;51.738;10.050;2023-01-31T00:47:05;99638.97;;;3.98;93.91
5703;BME280;2876;51.738;10.050;2023-01-31T00:53:07;99638.38;;;3.86;95.35
5703;BME280;2876;51.738;10.050;2023-01-31T00:59:09;99637.84;;;3.83;96.48
5703;BME280;2876;51.738;10.050;2023-01-31T01:05:12;99632.19;;;3.95;96.31
5703;BME280;2876;51.738;10.050;2023-01-31T01:11:26;99626.00;;;3.95;95.95
5703;BME280;2876;51.738;10.050;2023-01-31T01:17:29;99635.50;;;3.97;96.06
5703;BME280;2876;51.738;10.050;2023-01-31T01:23:30;99649.97;;;4.03;95.83
5703;BME280;2876;51.738;10.050;2023-01-31T01:29:33;99648.75;;;3.97;95.96
5703;BME280;2876;51.738;10.050;2023-01-31T01:35:35;99655.00;;;4.06;95.02
5703;BME280;2876;51.738;10.050;2023-01-31T01:41:39;99655.59;;;4.00;93.49
5703;BME280;2876;51.738;10.050;2023-01-31T01:47:52;99655.44;;;4.01;92.87
5703;BME280;2876;51.738;10.050;2023-01-31T01:54:00;99657.56;;;3.98;92.19
5703;BME280;2876;51.738;10.050;2023-01-31T02:00:28;99662.81;;;4.07;91.55
5703;BME280;2876;51.738;10.050;2023-01-31T02:06:30;99675.25;;;4.07;91.53
5703;BME280;2876;51.738;10.050;2023-01-31T02:12:33;99667.97;;;4.09;91.18
5703;BME280;2876;51.738;10.050;2023-01-31T02:18:36;99676.16;;;4.16;90.75
5703;BME280;2876;51.738;10.050;2023-01-31T02:44:54;99686.94;;;4.14;90.51
5703;BME280;2876;51.738;10.050;2023-01-31T02:51:15;99692.53;;;4.11;91.14
5703;BME280;2876;51.738;10.050;2023-01-31T02:57:20;99702.03;;;4.14;91.68
5703;BME280;2876;51.738;10.050;2023-01-31T03:03:34;99701.38;;;4.02;91.90
5703;BME280;2876;51.738;10.050;2023-01-31T03:16:27;99713.09;;;4.09;92.51
5703;BME280;2876;51.738;10.050;2023-01-31T03:22:59;99719.63;;;4.15;91.81
5703;BME280;2876;51.738;10.050;2023-01-31T03:29:04;99733.91;;;4.04;91.76
5703;BME280;2876;51.738;10.050;2023-01-31T03:35:07;99728.25;;;3.89;93.08
5703;BME280;2876;51.738;10.050;2023-01-31T03:47:40;99710.00;;;3.86;93.02
5703;BME280;2876;51.738;10.050;2023-01-31T03:53:51;99706.41;;;3.77;92.79
5703;BME280;2876;51.738;10.050;2023-01-31T03:59:57;99724.97;;;3.77;92.12
5703;BME280;2876;51.738;10.050;2023-01-31T04:06:00;99715.75;;;3.72;91.09
5703;BME280;2876;51.738;10.050;2023-01-31T04:12:03;99726.16;;;3.93;90.45
5703;BME280;2876;51.738;10.050;2023-01-31T04:18:05;99711.13;;;3.84;90.09
5703;BME280;2876;51.738;10.050;2023-01-31T04:24:07;99714.81;;;4.00;89.65
5703;BME280;2876;51.738;10.050;2023-01-31T04:30:11;99704.72;;;4.04;88.78
5703;BME280;2876;51.738;10.050;2023-01-31T04:36:13;99714.31;;;4.15;88.29
5703;BME280;2876;51.738;10.050;2023-01-31T04:42:15;99724.81;;;4.06;88.05
5703;BME280;2876;51.738;10.050;2023-01-31T04:48:17;99728.56;;;4.14;88.18
5703;BME280;2876;51.738;10.050;2023-01-31T04:54:20;99712.69;;;4.04;88.43
5703;BME280;2876;51.738;10.050;2023-01-31T05:00:22;99716.53;;;4.19;87.74
5703;BME280;2876;51.738;10.050;2023-01-31T05:06:24;99707.16;;;3.97;88.20
5703;BME280;2876;51.738;10.050;2023-01-31T05:12:26;99715.22;;;4.05;87.59
5703;BME280;2876;51.738;10.050;2023-01-31T05:18:29;99725.81;;;4.05;86.96
5703;BME280;2876;51.738;10.050;2023-01-31T05:24:32;99717.69;;;4.07;87.07
5703;BME280;2876;51.738;10.050;2023-01-31T05:30:35;99726.50;;;4.07;87.24
5703;BME280;2876;51.738;10.050;2023-01-31T05:36:38;99716.88;;;4.06;87.34
5703;BME280;2876;51.738;10.050;2023-01-31T05:42:40;99715.25;;;3.96;87.45
5703;BME280;2876;51.738;10.050;2023-01-31T05:48:42;99717.69;;;4.07;88.09
5703;BME280;2876;51.738;10.050;2023-01-31T05:54:44;99715.44;;;4.12;87.81
5703;BME280;2876;51.738;10.050;2023-01-31T06:00:46;99713.38;;;4.06;88.04
5703;BME280;2876;51.738;10.050;2023-01-31T06:06:47;99704.63;;;4.23;88.27
5703;BME280;2876;51.738;10.050;2023-01-31T06:12:49;99708.34;;;4.30;88.15
5703;BME280;2876;51.738;10.050;2023-01-31T06:18:51;99704.25;;;4.18;88.77
5703;BME280;2876;51.738;10.050;2023-01-31T06:24:53;99713.28;;;4.43;89.18
5703;BME280;2876;51.738;10.050;2023-01-31T06:30:55;99705.44;;;4.24;89.75
5703;BME280;2876;51.738;10.050;2023-01-31T06:36:57;99690.66;;;4.39;89.93
5703;BME280;2876;51.738;10.050;2023-01-31T06:42:59;99711.06;;;4.21;91.30
5703;BME280;2876;51.738;10.050;2023-01-31T06:49:01;99719.00;;;4.21;92.05
5703;BME280;2876;51.738;10.050;2023-01-31T06:55:04;99710.22;;;4.20;92.03
5703;BME280;2876;51.738;10.050;2023-01-31T07:01:08;99688.34;;;4.08;93.15
5703;BME280;2876;51.738;10.050;2023-01-31T07:07:11;99701.25;;;4.21;92.76
5703;BME280;2876;51.738;10.050;2023-01-31T07:13:13;99700.44;;;4.21;93.23
5703;BME280;2876;51.738;10.050;2023-01-31T07:19:15;99690.53;;;4.23;92.69
5703;BME280;2876;51.738;10.050;2023-01-31T07:25:17;99685.13;;;4.15;92.79
5703;BME280;2876;51.738;10.050;2023-01-31T07:31:20;99682.56;;;4.41;91.42
5703;BME280;2876;51.738;10.050;2023-01-31T07:37:22;99678.38;;;4.20;91.86
5703;BME280;2876;51.738;10.050;2023-01-31T07:43:24;99669.75;;;4.36;92.10
5703;BME280;2876;51.738;10.050;2023-01-31T07:49:26;99659.88;;;4.64;90.16
5703;BME280;2876;51.738;10.050;2023-01-31T07:55:28;99641.66;;;4.51;89.29
5703;BME280;2876;51.738;10.050;2023-01-31T08:01:30;99618.34;;;4.63;88.92
5703;BME280;2876;51.738;10.050;2023-01-31T08:07:52;99621.59;;;4.75;87.75
5703;BME280;2876;51.738;10.050;2023-01-31T08:14:11;99611.13;;;4.73;88.03
5703;BME280;2876;51.738;10.050;2023-01-31T08:20:13;99600.81;;;4.70;87.43
5703;BME280;2876;51.738;10.050;2023-01-31T08:26:18;99603.69;;;4.77;86.73
5703;BME280;2876;51.738;10.050;2023-01-31T08:32:20;99603.25;;;4.64;87.84
5703;BME280;2876;51.738;10.050;2023-01-31T08:38:22;99586.28;;;4.82;86.66
5703;BME280;2876;51.738;10.050;2023-01-31T08:44:24;99583.16;;;4.87;87.30
5703;BME280;2876;51.738;10.050;2023-01-31T08:50:29;99589.13;;;4.89;87.33
5703;BME280;2876;51.738;10.050;2023-01-31T08:56:33;99583.72;;;4.99;87.06
5703;BME280;2876;51.738;10.050;2023-01-31T09:02:35;99575.00;;;5.15;87.12
5703;BME280;2876;51.738;10.050;2023-01-31T09:08:37;99562.38;;;5.17;86.26
5703;BME280;2876;51.738;10.050;2023-01-31T09:14:39;99552.28;;;5.28;86.71
5703;BME280;2876;51.738;10.050;2023-01-31T09:20:41;99555.00;;;5.45;85.07
5703;BME280;2876;51.738;10.050;2023-01-31T09:26:43;99545.03;;;5.39;86.31
5703;BME280;2876;51.738;10.050;2023-01-31T09:32:45;99549.91;;;5.59;85.93
5703;BME280;2876;51.738;10.050;2023-01-31T09:38:47;99539.97;;;5.70;85.15
5703;BME280;2876;51.738;10.050;2023-01-31T09:44:57;99515.41;;;6.00;83.26
5703;BME280;2876;51.738;10.050;2023-01-31T09:51:00;99507.69;;;5.81;83.35
5703;BME280;2876;51.738;10.050;2023-01-31T09:57:57;99504.22;;;5.89;83.79
5703;BME280;2876;51.738;10.050;2023-01-31T10:16:40;99491.91;;;5.79;85.60
5703;BME280;2876;51.738;10.050;2023-01-31T10:22:59;99476.25;;;5.60;87.32
5703;BME280;2876;51.738;10.050;2023-01-31T10:29:35;99485.53;;;5.48;88.10
5703;BME280;2876;51.738;10.050;2023-01-31T10:35:41;99478.84;;;5.27;89.92
5703;BME280;2876;51.738;10.050;2023-01-31T11:00:31;99460.53;;;4.74;99.00
5703;BME280;2876;51.738;10.050;2023-01-31T11:06:33;99447.13;;;4.83;99.68
5703;BME280;2876;51.738;10.050;2023-01-31T11:12:42;99426.94;;;4.65;100.00
5703;BME280;2876;51.738;10.050;2023-01-31T11:18:52;99422.81;;;4.70;100.00
5703;BME280;2876;51.738;10.050;2023-01-31T11:24:56;99417.81;;;4.59;100.00
5703;BME280;2876;51.738;10.050;2023-01-31T11:30:59;99399.22;;;4.59;100.00
5703;BME280;2876;51.738;10.050;2023-01-31T11:37:15;99366.13;;;4.53;100.00
5703;BME280;2876;51.738;10.050;2023-01-31T11:43:22;99366.81;;;4.55;100.00
5703;BME280;2876;51.738;10.050;2023-01-31T11:49:34;99338.94;;;4.60;100.00
5703;BME280;2876;51.738;10.050;2023-01-31T11:55:37;99338.59;;;4.63;100.00
5703;BME280;2876;51.738;10.050;2023-01-31T12:01:48;99324.53;;;4.70;100.00
5703;BME280;2876;51.738;10.050;2023-01-31T12:07:51;99312.94;;;4.79;100.00
5703;BME280;2876;51.738;10.050;2023-01-31T12:14:13;99309.59;;;4.69;100.00
5703;BME280;2876;51.738;10.050;2023-01-31T12:20:30;99297.13;;;4.62;100.00
5703;BME280;2876;51.738;10.050;2023-01-31T12:27:04;99305.16;;;4.94;100.00
5703;BME280;2876;51.738;10.050;2023-01-31T12:53:37;99267.75;;;4.71;100.00
5703;BME280;2876;51.738;10.050;2023-01-31T13:00:10;99255.47;;;4.78;100.00
5703;BME280;2876;51.738;10.050;2023-01-31T13:06:35;99261.81;;;4.77;100.00
5703;BME280;2876;51.738;10.050;2023-01-31T13:12:39;99246.00;;;4.76;100.00
5703;BME280;2876;51.738;10.050;2023-01-31T13:18:42;99243.84;;;4.71;100.00
5703;BME280;2876;51.738;10.050;2023-01-31T13:24:56;99263.78;;;4.75;100.00
5703;BME280;2876;51.738;10.050;2023-01-31T13:31:04;99261.09;;;4.67;100.00
5703;BME280;2876;51.738;10.050;2023-01-31T13:37:13;99264.25;;;4.63;100.00
5703;BME280;2876;51.738;10.050;2023-01-31T13:43:21;99256.97;;;4.65;100.00
5703;BME280;2876;51.738;10.050;2023-01-31T13:55:42;99261.78;;;4.69;100.00
5703;BME280;2876;51.738;10.050;2023-01-31T14:01:48;99279.91;;;4.82;100.00
5703;BME280;2876;51.738;10.050;2023-01-31T14:14:48;99287.53;;;4.85;100.00
5703;BME280;2876;51.738;10.050;2023-01-31T14:20:51;99275.59;;;4.97;100.00
5703;BME280;2876;51.738;10.050;2023-01-31T14:26:54;99262.97;;;4.99;100.00
5703;BME280;2876;51.738;10.050;2023-01-31T14:39:32;99257.31;;;5.02;100.00
5703;BME280;2876;51.738;10.050;2023-01-31T14:58:36;99257.97;;;5.21;100.00
5703;BME280;2876;51.738;10.050;2023-01-31T15:04:55;99245.38;;;5.06;100.00
5703;BME280;2876;51.738;10.050;2023-01-31T15:17:42;99265.47;;;5.33;100.00
5703;BME280;2876;51.738;10.050;2023-01-31T15:23:45;99251.34;;;5.33;100.00
5703;BME280;2876;51.738;10.050;2023-01-31T15:36:06;99255.13;;;5.47;100.00
5703;BME280;2876;51.738;10.050;2023-01-31T15:42:26;99261.78;;;5.59;100.00
5703;BME280;2876;51.738;10.050;2023-01-31T15:48:28;99257.44;;;5.58;100.00
5703;BME280;2876;51.738;10.050;2023-01-31T15:54:30;99249.97;;;5.53;100.00
5703;BME280;2876;51.738;10.050;2023-01-31T16:00:36;99265.59;;;5.48;100.00
5703;BME280;2876;51.738;10.050;2023-01-31T16:06:39;99273.19;;;5.84;100.00
5703;BME280;2876;51.738;10.050;2023-01-31T16:12:45;99273.69;;;5.79;100.00
5703;BME280;2876;51.738;10.050;2023-01-31T16:18:56;99266.69;;;5.95;100.00
5703;BME280;2876;51.738;10.050;2023-01-31T16:25:02;99252.22;;;5.97;100.00
5703;BME280;2876;51.738;10.050;2023-01-31T16:31:13;99258.38;;;5.98;100.00
5703;BME280;2876;51.738;10.050;2023-01-31T16:37:45;99257.94;;;6.17;100.00
5703;BME280;2876;51.738;10.050;2023-01-31T16:43:50;99256.91;;;6.26;100.00
5703;BME280;2876;51.738;10.050;2023-01-31T17:03:02;99236.34;;;6.43;99.99
5703;BME280;2876;51.738;10.050;2023-01-31T17:09:18;99228.44;;;6.58;98.16
5703;BME280;2876;51.738;10.050;2023-01-31T17:15:20;99245.13;;;6.52;98.16
5703;BME280;2876;51.738;10.050;2023-01-31T17:21:24;99241.41;;;6.61;96.58
5703;BME280;2876;51.738;10.050;2023-01-31T17:27:27;99239.47;;;6.55;96.36
5703;BME280;2876;51.738;10.050;2023-01-31T17:33:29;99240.94;;;6.57;95.57
5703;BME280;2876;51.738;10.050;2023-01-31T17:39:31;99236.38;;;6.66;94.90
5703;BME280;2876;51.738;10.050;2023-01-31T17:45:33;99235.31;;;6.75;93.72
5703;BME280;2876;51.738;10.050;2023-01-31T17:51:35;99215.00;;;6.74;93.56
5703;BME280;2876;51.738;10.050;2023-01-31T17:57:37;99223.84;;;6.75;93.08
5703;BME280;2876;51.738;10.050;2023-01-31T18:03:39;99228.88;;;6.70;93.61
5703;BME280;2876;51.738;10.050;2023-01-31T18:09:42;99227.56;;;6.66;93.98
5703;BME280;2876;51.738;10.050;2023-01-31T18:15:44;99242.00;;;6.71;94.17
5703;BME280;2876;51.738;10.050;2023-01-31T18:21:46;99254.78;;;6.53;94.57
5703;BME280;2876;51.738;10.050;2023-01-31T18:27:57;99233.84;;;6.19;96.34
5703;BME280;2876;51.738;10.050;2023-01-31T18:33:59;99229.25;;;6.04;96.20
5703;BME280;2876;51.738;10.050;2023-01-31T18:40:01;99231.59;;;5.83;94.67
5703;BME280;2876;51.738;10.050;2023-01-31T18:46:04;99249.91;;;5.78;93.94
5703;BME280;2876;51.738;10.050;2023-01-31T18:52:07;99260.59;;;5.70;94.24
5703;BME280;2876;51.738;10.050;2023-01-31T18:58:09;99256.38;;;6.00;93.57
5703;BME280;2876;51.738;10.050;2023-01-31T19:04:11;99241.06;;;5.94;94.43
5703;BME280;2876;51.738;10.050;2023-01-31T19:10:13;99229.78;;;5.92;94.71
5703;BME280;2876;51.738;10.050;2023-01-31T19:16:25;99222.75;;;5.99;94.21
5703;BME280;2876;51.738;10.050;2023-01-31T19:22:27;99221.78;;;6.00;92.49
5703;BME280;2876;51.738;10.050;2023-01-31T19:28:29;99253.00;;;6.14;92.12
5703;BME280;2876;51.738;10.050;2023-01-31T19:34:31;99253.50;;;6.09;91.69
5703;BME280;2876;51.738;10.050;2023-01-31T19:40:34;99236.72;;;6.01;90.90
5703;BME280;2876;51.738;10.050;2023-01-31T19:46:36;99246.59;;;5.92;89.22
5703;BME280;2876;51.738;10.050;2023-01-31T19:52:38;99255.69;;;5.90;88.40
5703;BME280;2876;51.738;10.050;2023-01-31T19:58:41;99256.84;;;6.03;86.78
5703;BME280;2876;51.738;10.050;2023-01-31T20:04:43;99269.69;;;6.00;87.47
5703;BME280;2876;51.738;10.050;2023-01-31T20:10:46;99280.97;;;5.85;87.29
5703;BME280;2876;51.738;10.050;2023-01-31T20:16:48;99300.13;;;5.81;87.47
5703;BME280;2876;51.738;10.050;2023-01-31T20:22:50;99287.19;;;5.78;86.18
5703;BME280;2876;51.738;10.050;2023-01-31T20:28:52;99298.31;;;5.81;85.42
5703;BME280;2876;51.738;10.050;2023-01-31T20:34:54;99307.63;;;5.94;85.68
5703;BME280;2876;51.738;10.050;2023-01-31T20:40:56;99309.94;;;5.97;85.82
5703;BME280;2876;51.738;10.050;2023-01-31T20:46:58;99312.78;;;5.95;85.21
5703;BME280;2876;51.738;10.050;2023-01-31T20:53:00;99322.06;;;6.07;84.41
5703;BME280;2876;51.738;10.050;2023-01-31T20:59:02;99328.72;;;6.03;85.50
5703;BME280;2876;51.738;10.050;2023-01-31T21:05:04;99313.44;;;5.97;85.21
5703;BME280;2876;51.738;10.050;2023-01-31T21:11:09;99315.06;;;5.90;84.76
5703;BME280;2876;51.738;10.050;2023-01-31T21:17:11;99291.13;;;5.90;83.68
5703;BME280;2876;51.738;10.050;2023-01-31T21:23:14;99297.81;;;5.86;82.78
5703;BME280;2876;51.738;10.050;2023-01-31T21:29:16;99305.44;;;5.81;83.29
5703;BME280;2876;51.738;10.050;2023-01-31T21:35:18;99314.44;;;5.72;83.18
5703;BME280;2876;51.738;10.050;2023-01-31T21:41:20;99303.66;;;5.65;83.81
5703;BME280;2876;51.738;10.050;2023-01-31T21:47:48;99297.69;;;5.55;83.81
5703;BME280;2876;51.738;10.050;2023-01-31T21:54:08;99307.84;;;5.51;83.24
5703;BME280;2876;51.738;10.050;2023-01-31T22:00:11;99301.69;;;5.59;82.76
5703;BME280;2876;51.738;10.050;2023-01-31T22:06:18;99310.50;;;5.59;82.91
5703;BME280;2876;51.738;10.050;2023-01-31T22:12:21;99294.69;;;5.58;82.60
5703;BME280;2876;51.738;10.050;2023-01-31T22:18:23;99293.34;;;5.54;82.82
5703;BME280;2876;51.738;10.050;2023-01-31T22:24:25;99291.22;;;5.41;83.73
5703;BME280;2876;51.738;10.050;2023-01-31T22:30:27;99305.16;;;5.43;83.23
5703;BME280;2876;51.738;10.050;2023-01-31T22:36:30;99311.66;;;5.41;83.77
5703;BME280;2876;51.738;10.050;2023-01-31T22:42:32;99308.16;;;5.40;84.18
5703;BME280;2876;51.738;10.050;2023-01-31T22:48:34;99305.16;;;5.43;84.79
5703;BME280;2876;51.738;10.050;2023-01-31T22:54:36;99308.66;;;5.52;83.59
5703;BME280;2876;51.738;10.050;2023-01-31T23:00:39;99309.66;;;5.51;83.74
5703;BME280;2876;51.738;10.050;2023-01-31T23:06:41;99313.97;;;5.52;82.97
5703;BME280;2876;51.738;10.050;2023-01-31T23:12:43;99306.00;;;5.52;82.84
5703;BME280;2876;51.738;10.050;2023-01-31T23:18:45;99284.53;;;5.53;82.92
5703;BME280;2876;51.738;10.050;2023-01-31T23:24:47;99291.19;;;5.49;83.54
5703;BME280;2876;51.738;10.050;2023-01-31T23:30:49;99294.72;;;5.33;82.97
5703;BME280;2876;51.738;10.050;2023-01-31T23:36:51;99292.88;;;5.26;83.84
5703;BME280;2876;51.738;10.050;2023-01-31T23:42:53;99300.69;;;5.27;84.75
5703;BME280;2876;51.738;10.050;2023-01-31T23:48:55;99302.38;;;5.37;84.29
5703;BME280;2876;51.738;10.050;2023-01-31T23:54:58;99304.53;;;5.33;85.20
